Talon, Russia
Current Conditions -  °F | °C
As of 4:30 PM on Sunday 26 Oct 2014 (Local Time) from UHMM Reporting Station
Broken Clouds Broken Clouds  
Wind Chill: 19°   Ceiling: 20000
Heat Index: 27°   Visibility: 6mi
Dew Point: 10°   Wind: 7mph
Humidity: 51%   Direction: 10°N
Pressure: 30"   Gusts: NA
Location:  59.8°N, 148.63°E
Report Text: UHMM 260530Z 01003MPS 9999 FEW040 BKN200 M03/M12 Q1016 NOSIGRMK QFE747 88810560
Loading
Personal Weather Stations






























Interactive Weather Map
Tropical Storm Tracking
New forecast layout! Learn more

10-Day Weather Forecast

Advertisements
Track Severe Weather on mobile